sensor_id;sensor_type;location;lat;lon;timestamp;temperature;humidity
15450;DHT22;7826;49.784;9.934;2024-03-23T00:54:02;7.30;99.90
15450;DHT22;7826;49.784;9.934;2024-03-23T00:56:29;7.30;99.90
15450;DHT22;7826;49.784;9.934;2024-03-23T00:58:55;7.30;99.90
15450;DHT22;7826;49.784;9.934;2024-03-23T01:01:22;7.40;99.70
15450;DHT22;7826;49.784;9.934;2024-03-23T01:03:48;7.50;97.00
15450;DHT22;7826;49.784;9.934;2024-03-23T01:06:14;7.50;95.80
15450;DHT22;7826;49.784;9.934;2024-03-23T01:08:40;7.50;94.20
15450;DHT22;7826;49.784;9.934;2024-03-23T01:11:06;7.50;92.30
15450;DHT22;7826;49.784;9.934;2024-03-23T01:13:32;7.60;89.60
15450;DHT22;7826;49.784;9.934;2024-03-23T01:15:58;7.60;88.50
15450;DHT22;7826;49.784;9.934;2024-03-23T01:18:24;7.60;87.30
15450;DHT22;7826;49.784;9.934;2024-03-23T01:20:52;7.60;92.10
15450;DHT22;7826;49.784;9.934;2024-03-23T01:23:18;7.60;87.80
15450;DHT22;7826;49.784;9.934;2024-03-23T01:25:51;7.60;84.10
15450;DHT22;7826;49.784;9.934;2024-03-23T01:28:18;7.60;90.20
15450;DHT22;7826;49.784;9.934;2024-03-23T01:30:44;7.50;94.20
15450;DHT22;7826;49.784;9.934;2024-03-23T01:33:11;7.40;99.90
15450;DHT22;7826;49.784;9.934;2024-03-23T01:35:37;7.50;99.90
15450;DHT22;7826;49.784;9.934;2024-03-23T01:38:03;7.50;92.20
15450;DHT22;7826;49.784;9.934;2024-03-23T01:40:29;7.50;87.90
15450;DHT22;7826;49.784;9.934;2024-03-23T01:43:08;7.50;85.60
15450;DHT22;7826;49.784;9.934;2024-03-23T01:45:34;7.50;94.20
15450;DHT22;7826;49.784;9.934;2024-03-23T01:48:01;7.60;92.20
15450;DHT22;7826;49.784;9.934;2024-03-23T01:50:28;7.60;86.20
15450;DHT22;7826;49.784;9.934;2024-03-23T01:52:54;7.50;88.60
15450;DHT22;7826;49.784;9.934;2024-03-23T01:55:20;7.50;93.40
15450;DHT22;7826;49.784;9.934;2024-03-23T01:57:46;7.50;90.50
15450;DHT22;7826;49.784;9.934;2024-03-23T02:00:13;7.60;84.60
15450;DHT22;7826;49.784;9.934;2024-03-23T02:02:44;7.60;81.30
15450;DHT22;7826;49.784;9.934;2024-03-23T02:05:11;7.60;84.30
15450;DHT22;7826;49.784;9.934;2024-03-23T02:07:41;7.60;88.60
15450;DHT22;7826;49.784;9.934;2024-03-23T02:10:09;7.60;85.00
15450;DHT22;7826;49.784;9.934;2024-03-23T02:12:36;7.50;86.30
15450;DHT22;7826;49.784;9.934;2024-03-23T02:15:03;7.50;92.70
15450;DHT22;7826;49.784;9.934;2024-03-23T02:17:31;7.70;78.70
15450;DHT22;7826;49.784;9.934;2024-03-23T02:19:58;7.60;79.60
15450;DHT22;7826;49.784;9.934;2024-03-23T02:22:24;7.50;87.50
15450;DHT22;7826;49.784;9.934;2024-03-23T02:24:50;7.50;92.60
15450;DHT22;7826;49.784;9.934;2024-03-23T02:27:16;7.40;98.40
15450;DHT22;7826;49.784;9.934;2024-03-23T02:29:42;7.30;99.90
15450;DHT22;7826;49.784;9.934;2024-03-23T02:32:08;7.30;99.90
15450;DHT22;7826;49.784;9.934;2024-03-23T02:34:35;7.20;99.90
15450;DHT22;7826;49.784;9.934;2024-03-23T02:37:02;7.20;99.90
15450;DHT22;7826;49.784;9.934;2024-03-23T02:39:28;7.20;99.90
15450;DHT22;7826;49.784;9.934;2024-03-23T02:41:54;7.20;99.90
15450;DHT22;7826;49.784;9.934;2024-03-23T02:44:20;7.20;99.90
15450;DHT22;7826;49.784;9.934;2024-03-23T02:46:46;7.30;99.90
15450;DHT22;7826;49.784;9.934;2024-03-23T02:49:13;7.30;97.40
15450;DHT22;7826;49.784;9.934;2024-03-23T02:51:40;7.40;97.00
15450;DHT22;7826;49.784;9.934;2024-03-23T02:54:06;7.40;94.50
15450;DHT22;7826;49.784;9.934;2024-03-23T02:56:33;7.40;99.90
15450;DHT22;7826;49.784;9.934;2024-03-23T02:58:59;7.40;96.60
15450;DHT22;7826;49.784;9.934;2024-03-23T03:01:25;7.60;90.80
15450;DHT22;7826;49.784;9.934;2024-03-23T03:03:51;7.60;89.10
15450;DHT22;7826;49.784;9.934;2024-03-23T03:06:25;7.50;90.20
15450;DHT22;7826;49.784;9.934;2024-03-23T03:08:51;7.50;87.70
15450;DHT22;7826;49.784;9.934;2024-03-23T03:11:17;7.50;85.40
15450;DHT22;7826;49.784;9.934;2024-03-23T03:13:43;7.50;82.20
15450;DHT22;7826;49.784;9.934;2024-03-23T03:16:12;7.50;79.30
15450;DHT22;7826;49.784;9.934;2024-03-23T03:18:39;7.50;82.80
15450;DHT22;7826;49.784;9.934;2024-03-23T03:21:07;7.50;85.00
15450;DHT22;7826;49.784;9.934;2024-03-23T03:23:37;7.50;79.00
15450;DHT22;7826;49.784;9.934;2024-03-23T03:26:04;7.50;82.40
15450;DHT22;7826;49.784;9.934;2024-03-23T03:28:34;7.50;81.20
15450;DHT22;7826;49.784;9.934;2024-03-23T03:31:00;7.50;82.10
15450;DHT22;7826;49.784;9.934;2024-03-23T03:33:27;7.50;84.40
15450;DHT22;7826;49.784;9.934;2024-03-23T03:35:54;7.40;93.50
15450;DHT22;7826;49.784;9.934;2024-03-23T03:38:20;7.40;90.10
15450;DHT22;7826;49.784;9.934;2024-03-23T03:40:47;7.50;85.70
15450;DHT22;7826;49.784;9.934;2024-03-23T03:43:13;7.40;87.30
15450;DHT22;7826;49.784;9.934;2024-03-23T03:45:39;7.40;82.10
15450;DHT22;7826;49.784;9.934;2024-03-23T03:48:06;7.30;91.10
15450;DHT22;7826;49.784;9.934;2024-03-23T03:50:32;7.30;91.10
15450;DHT22;7826;49.784;9.934;2024-03-23T03:52:59;7.30;93.10
15450;DHT22;7826;49.784;9.934;2024-03-23T03:55:25;7.30;90.10
15450;DHT22;7826;49.784;9.934;2024-03-23T03:57:51;7.30;83.80
15450;DHT22;7826;49.784;9.934;2024-03-23T04:00:17;7.30;89.30
15450;DHT22;7826;49.784;9.934;2024-03-23T04:02:43;7.20;83.60
15450;DHT22;7826;49.784;9.934;2024-03-23T04:05:09;7.20;84.50
15450;DHT22;7826;49.784;9.934;2024-03-23T04:07:35;7.20;80.40
15450;DHT22;7826;49.784;9.934;2024-03-23T04:10:02;7.20;78.30
15450;DHT22;7826;49.784;9.934;2024-03-23T04:12:31;7.20;80.90
15450;DHT22;7826;49.784;9.934;2024-03-23T04:14:57;7.20;74.50
15450;DHT22;7826;49.784;9.934;2024-03-23T04:17:23;7.20;79.00
15450;DHT22;7826;49.784;9.934;2024-03-23T04:19:51;7.20;74.30
15450;DHT22;7826;49.784;9.934;2024-03-23T04:22:18;7.20;73.50
15450;DHT22;7826;49.784;9.934;2024-03-23T04:24:44;7.20;78.40
15450;DHT22;7826;49.784;9.934;2024-03-23T04:27:10;7.10;81.50
15450;DHT22;7826;49.784;9.934;2024-03-23T04:29:36;6.90;91.00
15450;DHT22;7826;49.784;9.934;2024-03-23T04:32:02;6.90;88.50
15450;DHT22;7826;49.784;9.934;2024-03-23T04:34:29;6.90;94.20
15450;DHT22;7826;49.784;9.934;2024-03-23T04:36:55;6.90;88.60
15450;DHT22;7826;49.784;9.934;2024-03-23T04:39:21;7.00;84.10
15450;DHT22;7826;49.784;9.934;2024-03-23T04:41:47;7.00;82.70
15450;DHT22;7826;49.784;9.934;2024-03-23T04:44:13;6.90;84.90
15450;DHT22;7826;49.784;9.934;2024-03-23T04:46:39;6.90;84.60
15450;DHT22;7826;49.784;9.934;2024-03-23T04:49:06;6.80;85.80
15450;DHT22;7826;49.784;9.934;2024-03-23T04:51:36;6.90;81.70
15450;DHT22;7826;49.784;9.934;2024-03-23T04:54:05;7.00;78.90
15450;DHT22;7826;49.784;9.934;2024-03-23T04:56:31;7.00;72.50
15450;DHT22;7826;49.784;9.934;2024-03-23T04:58:59;7.00;69.30
15450;DHT22;7826;49.784;9.934;2024-03-23T05:01:27;6.90;67.10
15450;DHT22;7826;49.784;9.934;2024-03-23T05:03:54;6.90;64.50
15450;DHT22;7826;49.784;9.934;2024-03-23T05:06:20;6.70;73.30
15450;DHT22;7826;49.784;9.934;2024-03-23T05:08:46;6.70;72.00
15450;DHT22;7826;49.784;9.934;2024-03-23T05:11:12;6.70;70.80
15450;DHT22;7826;49.784;9.934;2024-03-23T05:13:38;6.70;71.60
15450;DHT22;7826;49.784;9.934;2024-03-23T05:16:04;6.70;67.00
15450;DHT22;7826;49.784;9.934;2024-03-23T05:18:30;6.70;63.90
15450;DHT22;7826;49.784;9.934;2024-03-23T05:20:58;6.70;65.80
15450;DHT22;7826;49.784;9.934;2024-03-23T05:23:25;6.70;66.00
15450;DHT22;7826;49.784;9.934;2024-03-23T05:25:52;6.70;65.70
15450;DHT22;7826;49.784;9.934;2024-03-23T05:28:19;6.70;65.30
15450;DHT22;7826;49.784;9.934;2024-03-23T05:30:54;6.70;65.50
15450;DHT22;7826;49.784;9.934;2024-03-23T05:33:21;6.70;68.10
15450;DHT22;7826;49.784;9.934;2024-03-23T05:35:55;6.80;66.80
15450;DHT22;7826;49.784;9.934;2024-03-23T05:38:21;6.80;67.20
15450;DHT22;7826;49.784;9.934;2024-03-23T05:40:58;6.80;68.90
15450;DHT22;7826;49.784;9.934;2024-03-23T05:43:25;6.80;65.20
15450;DHT22;7826;49.784;9.934;2024-03-23T05:45:55;6.80;65.50
15450;DHT22;7826;49.784;9.934;2024-03-23T05:48:22;6.70;70.00
15450;DHT22;7826;49.784;9.934;2024-03-23T05:50:49;6.80;66.00
15450;DHT22;7826;49.784;9.934;2024-03-23T05:53:16;6.80;66.90
15450;DHT22;7826;49.784;9.934;2024-03-23T05:55:42;6.70;73.40
15450;DHT22;7826;49.784;9.934;2024-03-23T05:58:09;6.70;71.10
15450;DHT22;7826;49.784;9.934;2024-03-23T06:00:35;6.70;69.30
15450;DHT22;7826;49.784;9.934;2024-03-23T06:03:01;6.70;70.70
15450;DHT22;7826;49.784;9.934;2024-03-23T06:05:27;6.80;69.50
15450;DHT22;7826;49.784;9.934;2024-03-23T06:07:54;6.80;68.50
15450;DHT22;7826;49.784;9.934;2024-03-23T06:10:20;6.80;67.90
15450;DHT22;7826;49.784;9.934;2024-03-23T06:12:46;6.80;67.10
15450;DHT22;7826;49.784;9.934;2024-03-23T06:15:12;6.80;68.10
15450;DHT22;7826;49.784;9.934;2024-03-23T06:17:39;6.80;73.80
15450;DHT22;7826;49.784;9.934;2024-03-23T06:20:08;6.80;76.60
15450;DHT22;7826;49.784;9.934;2024-03-23T06:22:36;6.80;71.60
15450;DHT22;7826;49.784;9.934;2024-03-23T06:25:02;6.80;73.40
15450;DHT22;7826;49.784;9.934;2024-03-23T06:27:29;6.80;72.90
15450;DHT22;7826;49.784;9.934;2024-03-23T06:29:55;6.90;70.40
15450;DHT22;7826;49.784;9.934;2024-03-23T06:32:22;6.90;68.50
15450;DHT22;7826;49.784;9.934;2024-03-23T06:34:48;6.90;72.80
15450;DHT22;7826;49.784;9.934;2024-03-23T06:37:14;6.90;73.00
15450;DHT22;7826;49.784;9.934;2024-03-23T06:39:41;6.90;78.00
15450;DHT22;7826;49.784;9.934;2024-03-23T06:42:07;6.80;79.90
15450;DHT22;7826;49.784;9.934;2024-03-23T06:44:34;6.90;85.10
15450;DHT22;7826;49.784;9.934;2024-03-23T06:47:00;6.90;75.70
15450;DHT22;7826;49.784;9.934;2024-03-23T06:49:26;6.80;81.10
15450;DHT22;7826;49.784;9.934;2024-03-23T06:51:52;6.80;86.40
15450;DHT22;7826;49.784;9.934;2024-03-23T06:54:19;6.70;88.40
15450;DHT22;7826;49.784;9.934;2024-03-23T06:56:46;6.70;91.50
15450;DHT22;7826;49.784;9.934;2024-03-23T06:59:12;6.70;90.40
15450;DHT22;7826;49.784;9.934;2024-03-23T07:01:38;6.70;92.40
15450;DHT22;7826;49.784;9.934;2024-03-23T07:04:05;6.70;96.70
15450;DHT22;7826;49.784;9.934;2024-03-23T07:06:31;6.60;95.30
15450;DHT22;7826;49.784;9.934;2024-03-23T07:08:58;6.80;94.90
15450;DHT22;7826;49.784;9.934;2024-03-23T07:11:24;6.80;87.50
15450;DHT22;7826;49.784;9.934;2024-03-23T07:13:51;6.80;89.70
15450;DHT22;7826;49.784;9.934;2024-03-23T07:16:18;6.70;91.50
15450;DHT22;7826;49.784;9.934;2024-03-23T07:18:44;6.70;97.70
15450;DHT22;7826;49.784;9.934;2024-03-23T07:21:10;6.80;91.00
15450;DHT22;7826;49.784;9.934;2024-03-23T07:23:36;6.80;90.50
15450;DHT22;7826;49.784;9.934;2024-03-23T07:26:04;6.80;86.70
15450;DHT22;7826;49.784;9.934;2024-03-23T07:28:31;6.80;90.50
15450;DHT22;7826;49.784;9.934;2024-03-23T07:31:12;6.80;83.40
15450;DHT22;7826;49.784;9.934;2024-03-23T07:33:45;6.70;83.50
15450;DHT22;7826;49.784;9.934;2024-03-23T07:36:11;6.70;77.90
15450;DHT22;7826;49.784;9.934;2024-03-23T07:38:40;6.70;81.60
15450;DHT22;7826;49.784;9.934;2024-03-23T07:41:11;6.60;78.40
15450;DHT22;7826;49.784;9.934;2024-03-23T07:43:38;6.60;85.60
15450;DHT22;7826;49.784;9.934;2024-03-23T07:46:05;6.50;75.70
15450;DHT22;7826;49.784;9.934;2024-03-23T07:48:31;6.40;80.00
15450;DHT22;7826;49.784;9.934;2024-03-23T07:51:08;6.40;90.70
15450;DHT22;7826;49.784;9.934;2024-03-23T07:53:36;6.40;81.50
15450;DHT22;7826;49.784;9.934;2024-03-23T07:56:08;6.40;78.60
15450;DHT22;7826;49.784;9.934;2024-03-23T07:58:34;6.30;86.10
15450;DHT22;7826;49.784;9.934;2024-03-23T08:01:11;6.40;70.20
15450;DHT22;7826;49.784;9.934;2024-03-23T08:03:40;6.10;78.00
15450;DHT22;7826;49.784;9.934;2024-03-23T08:06:14;6.10;71.20
15450;DHT22;7826;49.784;9.934;2024-03-23T08:08:43;6.10;73.00
15450;DHT22;7826;49.784;9.934;2024-03-23T08:11:10;6.00;62.40
15450;DHT22;7826;49.784;9.934;2024-03-23T08:13:38;6.00;70.10
15450;DHT22;7826;49.784;9.934;2024-03-23T08:16:05;6.00;70.20
15450;DHT22;7826;49.784;9.934;2024-03-23T08:18:32;6.00;50.10
15450;DHT22;7826;49.784;9.934;2024-03-23T08:21:02;5.90;54.40
15450;DHT22;7826;49.784;9.934;2024-03-23T08:23:30;5.90;59.70
15450;DHT22;7826;49.784;9.934;2024-03-23T08:26:02;5.90;60.70
15450;DHT22;7826;49.784;9.934;2024-03-23T08:28:29;5.90;60.10
15450;DHT22;7826;49.784;9.934;2024-03-23T08:30:56;5.70;71.50
15450;DHT22;7826;49.784;9.934;2024-03-23T08:33:23;5.80;70.50
15450;DHT22;7826;49.784;9.934;2024-03-23T08:35:54;5.70;59.80
15450;DHT22;7826;49.784;9.934;2024-03-23T08:38:22;5.70;61.90
15450;DHT22;7826;49.784;9.934;2024-03-23T08:40:55;5.50;65.40
15450;DHT22;7826;49.784;9.934;2024-03-23T08:43:22;5.50;55.80
15450;DHT22;7826;49.784;9.934;2024-03-23T08:45:48;5.40;56.70
15450;DHT22;7826;49.784;9.934;2024-03-23T08:48:14;5.40;69.50
15450;DHT22;7826;49.784;9.934;2024-03-23T08:50:40;5.40;55.40
15450;DHT22;7826;49.784;9.934;2024-03-23T08:53:06;5.30;82.30
15450;DHT22;7826;49.784;9.934;2024-03-23T08:55:32;5.30;70.10
15450;DHT22;7826;49.784;9.934;2024-03-23T08:57:58;5.40;83.60
15450;DHT22;7826;49.784;9.934;2024-03-23T09:00:26;5.50;70.00
15450;DHT22;7826;49.784;9.934;2024-03-23T09:02:52;5.40;66.50
15450;DHT22;7826;49.784;9.934;2024-03-23T09:05:19;5.40;74.80
15450;DHT22;7826;49.784;9.934;2024-03-23T09:07:45;5.40;63.10
15450;DHT22;7826;49.784;9.934;2024-03-23T09:10:11;5.40;59.60
15450;DHT22;7826;49.784;9.934;2024-03-23T09:12:38;5.40;67.20
15450;DHT22;7826;49.784;9.934;2024-03-23T09:15:04;5.40;61.00
15450;DHT22;7826;49.784;9.934;2024-03-23T09:17:30;5.40;80.10
15450;DHT22;7826;49.784;9.934;2024-03-23T09:19:56;5.40;70.60
15450;DHT22;7826;49.784;9.934;2024-03-23T09:22:23;5.40;65.20
15450;DHT22;7826;49.784;9.934;2024-03-23T09:24:49;5.40;54.10
15450;DHT22;7826;49.784;9.934;2024-03-23T09:27:15;5.30;57.20
15450;DHT22;7826;49.784;9.934;2024-03-23T09:29:41;5.30;57.80
15450;DHT22;7826;49.784;9.934;2024-03-23T09:32:07;5.30;63.60
15450;DHT22;7826;49.784;9.934;2024-03-23T09:34:34;5.20;64.40
15450;DHT22;7826;49.784;9.934;2024-03-23T09:37:00;5.10;77.10
15450;DHT22;7826;49.784;9.934;2024-03-23T09:39:26;5.00;74.30
15450;DHT22;7826;49.784;9.934;2024-03-23T09:41:56;5.10;70.10
15450;DHT22;7826;49.784;9.934;2024-03-23T09:44:23;5.10;65.80
15450;DHT22;7826;49.784;9.934;2024-03-23T09:46:52;5.10;61.10
15450;DHT22;7826;49.784;9.934;2024-03-23T09:49:18;5.00;78.20
15450;DHT22;7826;49.784;9.934;2024-03-23T09:51:44;5.10;90.00
15450;DHT22;7826;49.784;9.934;2024-03-23T09:54:11;5.20;84.90
15450;DHT22;7826;49.784;9.934;2024-03-23T09:56:37;5.20;80.80
15450;DHT22;7826;49.784;9.934;2024-03-23T09:59:03;5.20;73.50
15450;DHT22;7826;49.784;9.934;2024-03-23T10:01:30;5.20;73.70
15450;DHT22;7826;49.784;9.934;2024-03-23T10:03:56;5.30;76.50
15450;DHT22;7826;49.784;9.934;2024-03-23T10:06:23;5.20;79.70
15450;DHT22;7826;49.784;9.934;2024-03-23T10:08:52;5.30;67.60
15450;DHT22;7826;49.784;9.934;2024-03-23T10:11:20;5.30;61.50
15450;DHT22;7826;49.784;9.934;2024-03-23T10:13:47;5.40;67.50
15450;DHT22;7826;49.784;9.934;2024-03-23T10:16:21;5.40;66.10
15450;DHT22;7826;49.784;9.934;2024-03-23T10:18:49;5.40;63.70
15450;DHT22;7826;49.784;9.934;2024-03-23T10:21:16;5.40;52.30
15450;DHT22;7826;49.784;9.934;2024-03-23T10:23:43;5.40;54.00
15450;DHT22;7826;49.784;9.934;2024-03-23T10:26:21;5.20;37.10
15450;DHT22;7826;49.784;9.934;2024-03-23T10:29:08;5.30;52.70
15450;DHT22;7826;49.784;9.934;2024-03-23T10:31:36;5.20;77.70
15450;DHT22;7826;49.784;9.934;2024-03-23T10:34:03;5.20;83.90
15450;DHT22;7826;49.784;9.934;2024-03-23T10:36:30;5.20;72.00
15450;DHT22;7826;49.784;9.934;2024-03-23T10:38:56;5.30;79.70
15450;DHT22;7826;49.784;9.934;2024-03-23T10:41:29;5.40;80.40
15450;DHT22;7826;49.784;9.934;2024-03-23T10:43:58;5.30;88.00
15450;DHT22;7826;49.784;9.934;2024-03-23T10:46:27;5.40;90.10
15450;DHT22;7826;49.784;9.934;2024-03-23T10:48:53;5.40;78.60
15450;DHT22;7826;49.784;9.934;2024-03-23T10:51:19;5.50;88.90
15450;DHT22;7826;49.784;9.934;2024-03-23T10:53:46;5.50;85.70
15450;DHT22;7826;49.784;9.934;2024-03-23T10:56:13;5.60;88.10
15450;DHT22;7826;49.784;9.934;2024-03-23T10:58:45;5.60;92.10
15450;DHT22;7826;49.784;9.934;2024-03-23T11:01:13;5.80;90.70
15450;DHT22;7826;49.784;9.934;2024-03-23T11:03:45;5.90;52.80
15450;DHT22;7826;49.784;9.934;2024-03-23T11:06:34;5.90;59.10
15450;DHT22;7826;49.784;9.934;2024-03-23T11:09:01;5.80;45.80
15450;DHT22;7826;49.784;9.934;2024-03-23T11:11:27;5.90;62.80
15450;DHT22;7826;49.784;9.934;2024-03-23T11:13:57;5.90;67.90
15450;DHT22;7826;49.784;9.934;2024-03-23T11:16:27;5.70;61.80
15450;DHT22;7826;49.784;9.934;2024-03-23T11:19:34;5.80;65.60
15450;DHT22;7826;49.784;9.934;2024-03-23T11:22:01;5.80;55.50
15450;DHT22;7826;49.784;9.934;2024-03-23T11:24:27;5.80;68.00
15450;DHT22;7826;49.784;9.934;2024-03-23T11:26:54;5.90;93.70
15450;DHT22;7826;49.784;9.934;2024-03-23T11:29:20;6.00;70.50
15450;DHT22;7826;49.784;9.934;2024-03-23T11:31:52;6.00;45.50
15450;DHT22;7826;49.784;9.934;2024-03-23T11:34:21;6.00;73.70
15450;DHT22;7826;49.784;9.934;2024-03-23T11:36:48;6.00;71.90
15450;DHT22;7826;49.784;9.934;2024-03-23T11:39:20;5.90;53.60
15450;DHT22;7826;49.784;9.934;2024-03-23T11:41:50;6.00;86.50
15450;DHT22;7826;49.784;9.934;2024-03-23T11:44:21;6.00;69.70
15450;DHT22;7826;49.784;9.934;2024-03-23T11:46:48;5.90;66.50
15450;DHT22;7826;49.784;9.934;2024-03-23T11:51:48;5.90;82.20
15450;DHT22;7826;49.784;9.934;2024-03-23T11:54:14;5.90;83.00
15450;DHT22;7826;49.784;9.934;2024-03-23T11:56:53;5.90;84.70
15450;DHT22;7826;49.784;9.934;2024-03-23T11:59:38;5.90;71.10
15450;DHT22;7826;49.784;9.934;2024-03-23T12:02:11;5.90;72.70
15450;DHT22;7826;49.784;9.934;2024-03-23T12:04:41;5.90;68.40
15450;DHT22;7826;49.784;9.934;2024-03-23T12:07:17;6.00;60.80
15450;DHT22;7826;49.784;9.934;2024-03-23T12:10:06;5.90;62.50
15450;DHT22;7826;49.784;9.934;2024-03-23T12:12:32;5.80;50.60
15450;DHT22;7826;49.784;9.934;2024-03-23T12:15:06;5.50;47.70
15450;DHT22;7826;49.784;9.934;2024-03-23T12:17:32;5.30;52.50
15450;DHT22;7826;49.784;9.934;2024-03-23T12:20:01;5.30;53.50
15450;DHT22;7826;49.784;9.934;2024-03-23T12:22:27;5.20;27.60
15450;DHT22;7826;49.784;9.934;2024-03-23T12:24:55;5.20;8.80
15450;DHT22;7826;49.784;9.934;2024-03-23T12:27:22;5.20;14.60
15450;DHT22;7826;49.784;9.934;2024-03-23T12:29:48;5.20;31.40
15450;DHT22;7826;49.784;9.934;2024-03-23T12:32:14;5.20;31.20
15450;DHT22;7826;49.784;9.934;2024-03-23T12:34:42;5.20;26.20
15450;DHT22;7826;49.784;9.934;2024-03-23T12:37:08;5.30;32.20
15450;DHT22;7826;49.784;9.934;2024-03-23T12:39:35;5.30;49.90
15450;DHT22;7826;49.784;9.934;2024-03-23T12:42:02;5.40;40.60
15450;DHT22;7826;49.784;9.934;2024-03-23T12:44:31;5.30;30.60
15450;DHT22;7826;49.784;9.934;2024-03-23T12:46:57;5.40;32.00
15450;DHT22;7826;49.784;9.934;2024-03-23T12:49:23;5.40;45.20
15450;DHT22;7826;49.784;9.934;2024-03-23T12:51:56;5.40;72.00
15450;DHT22;7826;49.784;9.934;2024-03-23T12:54:23;5.80;80.60
15450;DHT22;7826;49.784;9.934;2024-03-23T12:56:49;6.10;72.90
15450;DHT22;7826;49.784;9.934;2024-03-23T12:59:15;6.20;74.30
15450;DHT22;7826;49.784;9.934;2024-03-23T13:01:43;6.60;77.90
15450;DHT22;7826;49.784;9.934;2024-03-23T13:04:11;6.80;76.00
15450;DHT22;7826;49.784;9.934;2024-03-23T13:06:38;7.10;70.50
15450;DHT22;7826;49.784;9.934;2024-03-23T13:09:04;7.60;96.20
15450;DHT22;7826;49.784;9.934;2024-03-23T13:11:31;8.10;53.20
15450;DHT22;7826;49.784;9.934;2024-03-23T13:13:57;8.40;58.00
15450;DHT22;7826;49.784;9.934;2024-03-23T13:16:24;8.90;70.20
15450;DHT22;7826;49.784;9.934;2024-03-23T13:18:50;9.40;78.70
15450;DHT22;7826;49.784;9.934;2024-03-23T13:21:16;9.80;1.00
15450;DHT22;7826;49.784;9.934;2024-03-23T13:23:42;9.60;1.00
15450;DHT22;7826;49.784;9.934;2024-03-23T13:26:13;10.30;57.00
15450;DHT22;7826;49.784;9.934;2024-03-23T13:28:40;9.80;1.00
15450;DHT22;7826;49.784;9.934;2024-03-23T13:31:06;9.60;1.00
15450;DHT22;7826;49.784;9.934;2024-03-23T13:33:34;9.30;1.00
15450;DHT22;7826;49.784;9.934;2024-03-23T13:36:00;9.60;1.00
15450;DHT22;7826;49.784;9.934;2024-03-23T13:38:27;10.10;3.10
15450;DHT22;7826;49.784;9.934;2024-03-23T13:43:20;9.40;1.00
15450;DHT22;7826;49.784;9.934;2024-03-23T13:45:47;9.50;1.00
15450;DHT22;7826;49.784;9.934;2024-03-23T13:48:22;9.60;1.00
15450;DHT22;7826;49.784;9.934;2024-03-23T13:51:00;9.90;1.00
15450;DHT22;7826;49.784;9.934;2024-03-23T13:53:26;10.10;1.00
15450;DHT22;7826;49.784;9.934;2024-03-23T13:55:52;10.10;1.00
15450;DHT22;7826;49.784;9.934;2024-03-23T13:58:19;9.80;1.00
15450;DHT22;7826;49.784;9.934;2024-03-23T14:00:46;9.50;1.00
15450;DHT22;7826;49.784;9.934;2024-03-23T14:03:13;9.40;1.00
15450;DHT22;7826;49.784;9.934;2024-03-23T14:05:40;9.10;1.00
15450;DHT22;7826;49.784;9.934;2024-03-23T14:08:10;8.50;1.00
15450;DHT22;7826;49.784;9.934;2024-03-23T14:10:40;8.30;1.00
15450;DHT22;7826;49.784;9.934;2024-03-23T14:13:07;8.20;1.00
15450;DHT22;7826;49.784;9.934;2024-03-23T14:15:34;8.10;1.00
15450;DHT22;7826;49.784;9.934;2024-03-23T14:18:02;7.50;1.00
15450;DHT22;7826;49.784;9.934;2024-03-23T14:20:30;7.10;1.00
15450;DHT22;7826;49.784;9.934;2024-03-23T14:22:56;6.50;1.00
15450;DHT22;7826;49.784;9.934;2024-03-23T14:25:22;6.20;16.80
15450;DHT22;7826;49.784;9.934;2024-03-23T14:27:53;5.80;16.20
15450;DHT22;7826;49.784;9.934;2024-03-23T14:30:19;5.50;46.30
15450;DHT22;7826;49.784;9.934;2024-03-23T14:32:49;5.60;48.90
15450;DHT22;7826;49.784;9.934;2024-03-23T14:35:15;5.60;50.10
15450;DHT22;7826;49.784;9.934;2024-03-23T14:37:42;5.60;49.50
15450;DHT22;7826;49.784;9.934;2024-03-23T14:40:09;5.80;41.70
15450;DHT22;7826;49.784;9.934;2024-03-23T14:42:40;6.20;90.00
15450;DHT22;7826;49.784;9.934;2024-03-23T14:45:07;6.60;51.30
15450;DHT22;7826;49.784;9.934;2024-03-23T14:47:34;6.80;20.50
15450;DHT22;7826;49.784;9.934;2024-03-23T14:50:01;6.80;1.00
15450;DHT22;7826;49.784;9.934;2024-03-23T14:52:27;6.80;1.00
15450;DHT22;7826;49.784;9.934;2024-03-23T14:54:55;6.80;1.00
15450;DHT22;7826;49.784;9.934;2024-03-23T14:57:22;6.70;7.50
15450;DHT22;7826;49.784;9.934;2024-03-23T14:59:49;6.60;4.10
15450;DHT22;7826;49.784;9.934;2024-03-23T15:02:15;6.50;15.30
15450;DHT22;7826;49.784;9.934;2024-03-23T15:04:42;6.50;18.30
15450;DHT22;7826;49.784;9.934;2024-03-23T15:07:08;6.50;15.10
15450;DHT22;7826;49.784;9.934;2024-03-23T15:09:35;6.50;1.00
15450;DHT22;7826;49.784;9.934;2024-03-23T15:12:01;6.50;3.60
15450;DHT22;7826;49.784;9.934;2024-03-23T15:14:28;6.60;16.70
15450;DHT22;7826;49.784;9.934;2024-03-23T15:16:54;6.60;12.30
15450;DHT22;7826;49.784;9.934;2024-03-23T15:19:20;6.70;18.10
15450;DHT22;7826;49.784;9.934;2024-03-23T15:21:46;6.70;17.60
15450;DHT22;7826;49.784;9.934;2024-03-23T15:24:12;6.70;2.70
15450;DHT22;7826;49.784;9.934;2024-03-23T15:26:38;6.60;9.90
15450;DHT22;7826;49.784;9.934;2024-03-23T15:29:04;6.70;14.90
15450;DHT22;7826;49.784;9.934;2024-03-23T15:31:38;6.90;4.60
15450;DHT22;7826;49.784;9.934;2024-03-23T15:34:04;7.10;5.50
15450;DHT22;7826;49.784;9.934;2024-03-23T15:36:30;7.20;2.40
15450;DHT22;7826;49.784;9.934;2024-03-23T15:38:57;7.30;1.00
15450;DHT22;7826;49.784;9.934;2024-03-23T15:41:24;7.20;1.00
15450;DHT22;7826;49.784;9.934;2024-03-23T15:43:51;7.20;1.00
15450;DHT22;7826;49.784;9.934;2024-03-23T15:46:17;7.20;1.00
15450;DHT22;7826;49.784;9.934;2024-03-23T15:48:45;7.30;1.00
15450;DHT22;7826;49.784;9.934;2024-03-23T15:51:13;7.30;1.00
15450;DHT22;7826;49.784;9.934;2024-03-23T15:53:40;7.20;1.00
15450;DHT22;7826;49.784;9.934;2024-03-23T15:56:06;7.20;1.00
15450;DHT22;7826;49.784;9.934;2024-03-23T15:58:33;7.20;1.00
15450;DHT22;7826;49.784;9.934;2024-03-23T16:01:04;7.20;1.00
15450;DHT22;7826;49.784;9.934;2024-03-23T16:03:32;7.10;1.00
15450;DHT22;7826;49.784;9.934;2024-03-23T16:06:03;7.10;1.00
15450;DHT22;7826;49.784;9.934;2024-03-23T16:08:30;7.10;1.00
15450;DHT22;7826;49.784;9.934;2024-03-23T16:13:26;6.80;1.00
15450;DHT22;7826;49.784;9.934;2024-03-23T16:16:04;6.70;1.00
15450;DHT22;7826;49.784;9.934;2024-03-23T16:18:34;6.60;1.00
15450;DHT22;7826;49.784;9.934;2024-03-23T16:21:02;6.60;1.00
15450;DHT22;7826;49.784;9.934;2024-03-23T16:23:29;6.50;1.00
15450;DHT22;7826;49.784;9.934;2024-03-23T16:25:56;6.50;1.00
15450;DHT22;7826;49.784;9.934;2024-03-23T16:28:40;6.50;1.00
15450;DHT22;7826;49.784;9.934;2024-03-23T16:31:08;6.50;1.00
15450;DHT22;7826;49.784;9.934;2024-03-23T16:33:37;6.50;1.00
15450;DHT22;7826;49.784;9.934;2024-03-23T16:38:36;6.50;1.00
15450;DHT22;7826;49.784;9.934;2024-03-23T16:41:06;6.40;1.00
15450;DHT22;7826;49.784;9.934;2024-03-23T16:43:34;6.40;1.00
15450;DHT22;7826;49.784;9.934;2024-03-23T16:48:30;6.30;1.00
15450;DHT22;7826;49.784;9.934;2024-03-23T16:50:57;6.30;1.00
15450;DHT22;7826;49.784;9.934;2024-03-23T16:53:24;6.20;1.00
15450;DHT22;7826;49.784;9.934;2024-03-23T16:55:58;6.10;1.00
15450;DHT22;7826;49.784;9.934;2024-03-23T16:58:30;6.10;1.00
15450;DHT22;7826;49.784;9.934;2024-03-23T17:01:10;6.10;1.00
15450;DHT22;7826;49.784;9.934;2024-03-23T17:03:51;6.00;1.00
15450;DHT22;7826;49.784;9.934;2024-03-23T17:06:19;5.90;1.00
15450;DHT22;7826;49.784;9.934;2024-03-23T17:08:46;5.90;1.00
15450;DHT22;7826;49.784;9.934;2024-03-23T17:11:16;5.90;1.00
15450;DHT22;7826;49.784;9.934;2024-03-23T17:13:44;5.90;1.00